createdAt,value
2019-04-28T00:02:08.413Z,17.57
2019-04-28T00:04:39.088Z,17.15
2019-04-28T00:09:37.756Z,18.85
2019-04-28T00:12:07.744Z,17.90
2019-04-28T00:14:37.599Z,17.73
2019-04-28T00:17:08.243Z,18.60
2019-04-28T00:19:40.733Z,18.32
2019-04-28T00:22:12.558Z,19.37
2019-04-28T00:24:53.138Z,20.15
2019-04-28T00:29:52.085Z,19.77
2019-04-28T00:32:22.016Z,19.92
2019-04-28T00:34:51.890Z,19.57
2019-04-28T00:37:23.366Z,20.45
2019-04-28T00:39:53.267Z,20.08
2019-04-28T00:42:23.138Z,20.45
2019-04-28T00:47:22.691Z,20.00
2019-04-28T00:49:52.512Z,20.23
2019-04-28T00:52:22.411Z,20.52
2019-04-28T00:54:52.900Z,19.30
2019-04-28T00:57:22.733Z,19.40
2019-04-28T00:59:57.982Z,18.90
2019-04-28T01:02:28.361Z,20.27
2019-04-28T01:04:58.175Z,19.52
2019-04-28T01:07:28.035Z,19.40
2019-04-28T01:09:57.901Z,19.87
2019-04-28T01:12:27.796Z,19.75
2019-04-28T01:14:59.671Z,18.92
2019-04-28T01:17:30.816Z,18.20
2019-04-28T01:20:17.431Z,17.73
2019-04-28T01:22:47.225Z,17.85
2019-04-28T01:25:17.119Z,16.60
2019-04-28T01:27:50.418Z,17.00
2019-04-28T01:30:23.149Z,17.35
2019-04-28T01:32:54.615Z,17.57
2019-04-28T01:35:24.462Z,16.57
2019-04-28T01:37:54.297Z,18.20
2019-04-28T01:40:24.256Z,20.02
2019-04-28T01:42:54.158Z,22.13
2019-04-28T01:45:24.001Z,21.15
2019-04-28T01:47:53.969Z,22.48
2019-04-28T01:50:23.713Z,22.77
2019-04-28T01:52:53.535Z,22.60
2019-04-28T01:55:23.347Z,22.90
2019-04-28T01:57:53.255Z,23.83
2019-04-28T02:00:25.572Z,22.65
2019-04-28T02:02:54.748Z,22.30
2019-04-28T02:05:24.591Z,17.98
2019-04-28T02:07:54.514Z,16.15
2019-04-28T02:10:24.366Z,14.45
2019-04-28T02:12:54.176Z,13.08
2019-04-28T02:15:24.029Z,12.55
2019-04-28T02:17:53.907Z,11.57
2019-04-28T02:20:24.214Z,11.70
2019-04-28T02:22:59.882Z,10.23
2019-04-28T02:25:29.915Z,10.18
2019-04-28T02:27:59.760Z,10.30
2019-04-28T02:30:44.056Z,10.08
2019-04-28T02:33:01.843Z,9.80
2019-04-28T02:35:34.105Z,9.75
2019-04-28T02:38:04.304Z,10.35
2019-04-28T02:40:34.072Z,9.97
2019-04-28T02:43:03.914Z,9.40
2019-04-28T02:45:36.414Z,10.38
2019-04-28T02:48:07.893Z,9.95
2019-04-28T02:50:42.407Z,9.43
2019-04-28T02:53:21.077Z,9.38
2019-04-28T02:55:51.466Z,9.05
2019-04-28T02:58:22.383Z,9.88
2019-04-28T03:01:06.750Z,8.58
2019-04-28T03:03:24.079Z,8.18
2019-04-28T03:05:53.895Z,7.85
2019-04-28T03:08:23.656Z,8.55
2019-04-28T03:10:53.466Z,8.88
2019-04-28T03:13:23.362Z,8.78
2019-04-28T03:15:53.181Z,9.45
2019-04-28T03:18:24.530Z,9.30
2019-04-28T03:20:54.279Z,8.15
2019-04-28T03:23:24.037Z,8.10
2019-04-28T03:25:58.150Z,8.40
2019-04-28T03:28:35.594Z,7.80
2019-04-28T03:31:36.720Z,7.92
2019-04-28T03:33:48.043Z,7.62
2019-04-28T03:36:15.027Z,8.18
2019-04-28T03:38:42.833Z,7.83
2019-04-28T03:41:12.675Z,7.90
2019-04-28T03:43:42.499Z,8.93
2019-04-28T03:46:16.589Z,8.47
2019-04-28T03:48:46.398Z,8.18
2019-04-28T03:51:16.199Z,8.35
2019-04-28T03:53:46.114Z,8.98
2019-04-28T03:56:15.959Z,8.18
2019-04-28T03:58:45.713Z,8.63
2019-04-28T04:01:15.610Z,8.25
2019-04-28T04:03:45.573Z,9.65
2019-04-28T04:06:15.451Z,9.25
2019-04-28T04:08:45.261Z,8.88
2019-04-28T04:11:16.639Z,9.05
2019-04-28T04:13:51.485Z,8.38
2019-04-28T04:16:40.543Z,8.85
2019-04-28T04:19:12.171Z,9.20
2019-04-28T04:21:42.109Z,9.48
2019-04-28T04:24:11.954Z,9.40
2019-04-28T04:26:41.849Z,9.43
2019-04-28T04:29:12.079Z,9.68
2019-04-28T04:31:41.925Z,9.45
2019-04-28T04:34:11.757Z,9.33
2019-04-28T04:36:41.976Z,9.48
2019-04-28T04:39:11.858Z,10.82
2019-04-28T04:41:43.706Z,10.30
2019-04-28T04:44:13.272Z,10.95
2019-04-28T04:46:44.010Z,10.43
2019-04-28T04:49:13.862Z,11.15
2019-04-28T04:51:44.099Z,11.43
2019-04-28T04:54:14.105Z,10.80
2019-04-28T04:56:44.054Z,10.68
2019-04-28T04:59:13.881Z,11.03
2019-04-28T05:01:45.396Z,10.43
2019-04-28T05:04:19.773Z,11.25
2019-04-28T05:06:50.668Z,11.53
2019-04-28T05:09:20.430Z,11.88
2019-04-28T05:11:50.265Z,10.88
2019-04-28T05:14:20.141Z,11.68
2019-04-28T05:16:49.991Z,12.23
2019-04-28T05:19:20.079Z,10.78
2019-04-28T05:21:50.024Z,11.40
2019-04-28T05:24:36.654Z,10.78
2019-04-28T05:27:06.619Z,10.98
2019-04-28T05:29:36.551Z,11.12
2019-04-28T05:32:06.380Z,12.23
2019-04-28T05:34:41.511Z,11.68
2019-04-28T05:37:07.975Z,10.58
2019-04-28T05:39:40.326Z,10.25
2019-04-28T05:42:11.304Z,11.00
2019-04-28T05:44:41.324Z,11.48
2019-04-28T05:47:11.240Z,11.33
2019-04-28T05:49:49.820Z,11.88
2019-04-28T05:52:34.043Z,11.78
2019-04-28T05:55:07.346Z,11.73
2019-04-28T05:57:39.779Z,11.90
2019-04-28T06:00:23.363Z,12.88
2019-04-28T06:02:56.872Z,12.80
2019-04-28T06:05:26.802Z,12.35
2019-04-28T06:08:02.491Z,13.38
2019-04-28T06:10:34.057Z,13.62
2019-04-28T06:13:03.960Z,13.08
2019-04-28T06:15:35.331Z,14.65
2019-04-28T06:18:05.160Z,15.03
2019-04-28T06:20:37.658Z,13.08
2019-04-28T06:23:09.895Z,13.25
2019-04-28T06:25:41.306Z,14.68
2019-04-28T06:28:11.110Z,14.43
2019-04-28T06:30:42.467Z,14.55
2019-04-28T06:33:12.506Z,13.60
2019-04-28T06:35:42.259Z,13.88
2019-04-28T06:38:12.381Z,14.13
2019-04-28T06:40:42.302Z,15.15
2019-04-28T06:43:12.143Z,15.13
2019-04-28T06:45:42.101Z,14.65
2019-04-28T06:48:11.918Z,14.13
2019-04-28T06:50:41.761Z,13.58
2019-04-28T06:53:11.574Z,14.10
2019-04-28T06:55:42.440Z,15.15
2019-04-28T06:58:12.397Z,14.85
2019-04-28T07:00:43.664Z,14.65
2019-04-28T07:03:22.939Z,16.75
2019-04-28T07:05:45.098Z,16.07
2019-04-28T07:08:15.044Z,16.00
2019-04-28T07:10:44.861Z,16.50
2019-04-28T07:13:14.627Z,17.50
2019-04-28T07:15:44.442Z,20.03
2019-04-28T07:18:14.354Z,18.92
2019-04-28T07:20:45.863Z,31.40
2019-04-28T07:23:15.782Z,21.87
2019-04-28T07:25:45.619Z,20.32
2019-04-28T07:28:15.531Z,19.47
2019-04-28T07:30:45.483Z,18.82
2019-04-28T07:33:17.023Z,19.60
2019-04-28T07:35:46.931Z,19.35
2019-04-28T07:38:16.704Z,18.70
2019-04-28T07:40:47.641Z,18.20
2019-04-28T07:43:17.397Z,16.37
2019-04-28T07:45:47.258Z,15.10
2019-04-28T07:48:17.145Z,12.65
2019-04-28T07:50:47.021Z,15.75
2019-04-28T07:53:24.522Z,12.85
2019-04-28T07:55:54.362Z,11.88
2019-04-28T07:58:25.191Z,11.95
2019-04-28T08:00:55.119Z,11.33
2019-04-28T08:03:24.948Z,11.57
2019-04-28T08:05:54.896Z,10.72
2019-04-28T08:08:24.727Z,12.50
2019-04-28T08:10:54.566Z,10.15
2019-04-28T08:13:24.422Z,9.08
2019-04-28T08:15:54.321Z,8.58
2019-04-28T08:18:24.194Z,7.47
2019-04-28T08:20:54.206Z,8.20
2019-04-28T08:23:24.423Z,9.05
2019-04-28T08:25:54.335Z,8.40
2019-04-28T08:28:24.190Z,7.05
2019-04-28T08:30:55.109Z,7.47
2019-04-28T08:33:35.499Z,8.13
2019-04-28T08:38:34.332Z,7.05
2019-04-28T08:41:04.251Z,6.20
2019-04-28T08:43:34.334Z,6.40
2019-04-28T08:46:04.292Z,7.40
2019-04-28T08:48:34.193Z,7.53
2019-04-28T08:51:04.430Z,6.28
2019-04-28T08:53:34.286Z,6.22
2019-04-28T08:56:04.433Z,6.40
2019-04-28T08:58:34.285Z,6.50
2019-04-28T09:01:04.275Z,6.05
2019-04-28T09:03:34.237Z,6.53
2019-04-28T09:06:04.135Z,5.60
2019-04-28T09:08:34.039Z,6.15
2019-04-28T09:11:04.080Z,6.30
2019-04-28T09:13:33.906Z,6.62
2019-04-28T09:16:03.666Z,5.72
2019-04-28T09:18:33.424Z,5.55
2019-04-28T09:21:04.177Z,6.33
2019-04-28T09:23:34.248Z,6.33
2019-04-28T09:26:04.156Z,6.08
2019-04-28T09:28:34.054Z,6.45
2019-04-28T09:31:05.332Z,6.10
2019-04-28T09:36:04.107Z,5.45
2019-04-28T09:38:34.031Z,4.58
2019-04-28T09:41:03.923Z,5.15
2019-04-28T09:43:53.540Z,5.33
2019-04-28T09:46:24.986Z,8.15
2019-04-28T09:48:54.843Z,5.55
2019-04-28T09:51:24.669Z,5.53
2019-04-28T09:53:54.506Z,5.90
2019-04-28T09:56:24.380Z,5.47
2019-04-28T09:58:54.130Z,6.40
2019-04-28T10:01:24.051Z,5.65
2019-04-28T10:03:53.897Z,4.85
2019-04-28T10:06:23.770Z,5.83
2019-04-28T10:08:53.550Z,5.90
2019-04-28T10:11:30.346Z,6.50
2019-04-28T10:13:57.016Z,5.95
2019-04-28T10:16:26.572Z,5.75
2019-04-28T10:18:56.493Z,5.17
2019-04-28T10:21:26.236Z,5.08
2019-04-28T10:23:56.247Z,5.85
2019-04-28T10:26:26.055Z,6.17
2019-04-28T10:28:55.982Z,7.67
2019-04-28T10:31:25.859Z,7.20
2019-04-28T10:33:57.359Z,7.42
2019-04-28T10:36:28.856Z,6.70
2019-04-28T10:39:01.332Z,6.83
2019-04-28T10:41:34.371Z,6.33
2019-04-28T10:44:04.267Z,5.78
2019-04-28T10:46:34.181Z,5.80
2019-04-28T10:49:04.141Z,7.90
2019-04-28T10:51:33.907Z,6.10
2019-04-28T10:54:03.802Z,7.08
2019-04-28T10:56:33.678Z,5.83
2019-04-28T10:59:03.808Z,5.83
2019-04-28T11:01:33.723Z,5.20
2019-04-28T11:04:14.071Z,4.92
2019-04-28T11:06:43.897Z,5.20
2019-04-28T11:09:33.330Z,4.97
2019-04-28T11:12:04.706Z,5.40
2019-04-28T11:14:34.635Z,5.67
2019-04-28T11:17:04.491Z,5.10
2019-04-28T11:19:34.331Z,6.45
2019-04-28T11:22:04.267Z,5.83
2019-04-28T11:24:35.314Z,6.28
2019-04-28T11:27:05.257Z,6.33
2019-04-28T11:29:35.145Z,6.03
2019-04-28T11:32:05.165Z,6.60
2019-04-28T11:34:42.621Z,7.15
2019-04-28T11:37:12.779Z,7.03
2019-04-28T11:39:44.184Z,7.62
2019-04-28T11:42:14.087Z,8.03
2019-04-28T11:44:43.992Z,8.00
2019-04-28T11:47:15.393Z,8.05
2019-04-28T11:49:45.310Z,8.35
2019-04-28T11:52:15.339Z,8.80
2019-04-28T11:54:45.246Z,8.00
2019-04-28T11:57:15.072Z,8.98
2019-04-28T11:59:44.902Z,8.50
2019-04-28T12:02:14.831Z,8.58
2019-04-28T12:04:44.797Z,8.15
2019-04-28T12:07:14.698Z,8.88
2019-04-28T12:09:49.218Z,8.55
2019-04-28T12:12:26.737Z,6.97
2019-04-28T12:15:07.340Z,7.85
2019-04-28T12:17:54.509Z,6.80
2019-04-28T12:20:25.899Z,7.22
2019-04-28T12:22:55.819Z,8.10
2019-04-28T12:25:25.713Z,7.70
2019-04-28T12:27:55.655Z,7.17
2019-04-28T12:30:25.503Z,7.30
2019-04-28T12:32:55.283Z,7.22
2019-04-28T12:35:25.040Z,7.10
2019-04-28T12:37:54.881Z,6.85
2019-04-28T12:40:24.707Z,6.72
2019-04-28T12:42:54.590Z,7.30
2019-04-28T12:45:34.544Z,6.85
2019-04-28T12:47:56.005Z,6.08
2019-04-28T12:50:27.464Z,6.17
2019-04-28T12:52:57.325Z,6.17
2019-04-28T12:55:27.148Z,5.90
2019-04-28T12:57:57.049Z,5.87
2019-04-28T13:00:34.397Z,7.62
2019-04-28T13:03:14.721Z,9.70
2019-04-28T13:06:01.159Z,11.22
2019-04-28T13:08:21.038Z,11.97
2019-04-28T13:10:51.173Z,12.43
2019-04-28T13:13:22.681Z,10.98
2019-04-28T13:15:52.516Z,11.28
2019-04-28T13:18:22.391Z,9.73
2019-04-28T13:20:52.229Z,13.32
2019-04-28T13:23:22.051Z,10.35
2019-04-28T13:25:52.056Z,10.10
2019-04-28T13:28:21.994Z,10.43
2019-04-28T13:30:51.881Z,10.20
2019-04-28T13:33:21.801Z,9.98
2019-04-28T13:35:51.663Z,11.15
2019-04-28T13:38:21.608Z,10.58
2019-04-28T13:40:51.363Z,11.45
2019-04-28T13:43:21.335Z,12.18
2019-04-28T13:45:51.223Z,16.57
2019-04-28T13:48:21.008Z,12.15
2019-04-28T13:50:50.935Z,12.85
2019-04-28T13:53:20.699Z,12.35
2019-04-28T13:55:52.275Z,11.80
2019-04-28T13:58:29.573Z,13.62
2019-04-28T14:01:06.753Z,12.55
2019-04-28T14:03:38.203Z,13.18
2019-04-28T14:06:28.658Z,13.15
2019-04-28T14:08:56.115Z,16.00
2019-04-28T14:11:26.107Z,14.98
2019-04-28T14:13:56.035Z,14.68
2019-04-28T14:16:26.034Z,13.22
2019-04-28T14:18:55.972Z,14.13
2019-04-28T14:21:25.774Z,15.88
2019-04-28T14:23:55.723Z,14.40
2019-04-28T14:26:25.554Z,15.25
2019-04-28T14:28:55.389Z,14.40
2019-04-28T14:31:25.234Z,13.20
2019-04-28T14:33:55.177Z,12.30
2019-04-28T14:36:25.036Z,12.13
2019-04-28T14:38:55.656Z,12.73
2019-04-28T14:41:25.453Z,11.90
2019-04-28T14:43:55.404Z,12.47
2019-04-28T14:46:25.401Z,18.80
2019-04-28T14:48:56.560Z,15.85
2019-04-28T14:51:26.477Z,14.90
2019-04-28T14:53:56.461Z,15.70
2019-04-28T14:56:26.355Z,16.15
2019-04-28T14:58:56.382Z,14.53
2019-04-28T15:01:42.739Z,16.15
2019-04-28T15:04:20.645Z,14.55
2019-04-28T15:06:55.799Z,14.93
2019-04-28T15:09:26.594Z,18.90
2019-04-28T15:11:58.134Z,16.87
2019-04-28T15:14:28.203Z,14.83
2019-04-28T15:16:58.113Z,14.13
2019-04-28T15:19:27.958Z,13.62
2019-04-28T15:21:57.845Z,14.33
2019-04-28T15:24:27.754Z,13.78
2019-04-28T15:26:57.725Z,13.08
2019-04-28T15:29:28.684Z,14.40
2019-04-28T15:31:59.180Z,14.25
2019-04-28T15:34:28.995Z,15.53
2019-04-28T15:37:09.169Z,16.37
2019-04-28T15:39:30.686Z,16.73
2019-04-28T15:42:00.701Z,16.45
2019-04-28T15:44:31.792Z,17.27
2019-04-28T15:47:01.683Z,27.58
2019-04-28T15:49:31.614Z,14.95
2019-04-28T15:52:03.377Z,12.55
2019-04-28T15:54:33.283Z,13.98
2019-04-28T15:57:03.351Z,13.93
2019-04-28T15:59:33.841Z,15.05
2019-04-28T16:04:33.684Z,15.58
2019-04-28T16:07:03.600Z,12.73
2019-04-28T16:09:33.537Z,13.45
2019-04-28T16:12:03.331Z,11.33
2019-04-28T16:14:33.382Z,14.43
2019-04-28T16:17:03.206Z,12.53
2019-04-28T16:19:34.116Z,11.97
2019-04-28T16:22:04.033Z,11.80
2019-04-28T16:24:33.982Z,14.53
2019-04-28T16:27:04.540Z,14.40
2019-04-28T16:29:34.467Z,15.85
2019-04-28T16:32:04.412Z,16.20
2019-04-28T16:34:34.333Z,22.27
2019-04-28T16:37:04.165Z,28.60
2019-04-28T16:39:34.075Z,30.15
2019-04-28T16:42:04.716Z,44.65
2019-04-28T16:47:13.674Z,29.00
2019-04-28T16:49:43.531Z,23.67
2019-04-28T16:52:13.453Z,28.15
2019-04-28T16:54:43.375Z,27.90
2019-04-28T16:57:23.911Z,20.05
2019-04-28T16:59:55.401Z,20.90
2019-04-28T17:02:26.823Z,21.70
2019-04-28T17:04:56.699Z,23.95
2019-04-28T17:07:26.809Z,23.38
2019-04-28T17:09:57.754Z,20.77
2019-04-28T17:12:27.748Z,23.02
2019-04-28T17:14:57.984Z,22.93
2019-04-28T17:17:29.157Z,19.35
2019-04-28T17:20:06.496Z,18.73
2019-04-28T17:22:36.947Z,16.95
2019-04-28T17:25:08.214Z,16.32
2019-04-28T17:27:38.065Z,16.25
2019-04-28T17:30:09.944Z,16.07
2019-04-28T17:32:39.900Z,14.93
2019-04-28T17:35:09.646Z,14.03
2019-04-28T17:37:39.949Z,11.55
2019-04-28T17:40:13.934Z,14.78
2019-04-28T17:42:43.936Z,12.63
2019-04-28T17:45:14.190Z,11.70
2019-04-28T17:47:44.329Z,13.78
2019-04-28T17:50:15.547Z,13.60
2019-04-28T17:52:45.676Z,12.82
2019-04-28T17:55:24.329Z,13.98
2019-04-28T17:57:57.863Z,17.20
2019-04-28T18:00:33.548Z,16.65
2019-04-28T18:03:17.056Z,16.00
2019-04-28T18:05:51.280Z,17.80
2019-04-28T18:08:21.588Z,15.63
2019-04-28T18:10:51.388Z,15.78
2019-04-28T18:13:21.388Z,19.50
2019-04-28T18:16:04.877Z,15.72
2019-04-28T18:18:37.707Z,18.85
2019-04-28T18:21:07.647Z,13.00
2019-04-28T18:23:37.592Z,12.33
2019-04-28T18:26:07.480Z,12.75
2019-04-28T18:28:37.329Z,11.93
2019-04-28T18:31:14.577Z,12.47
2019-04-28T18:34:01.995Z,12.07
2019-04-28T18:36:45.386Z,12.18
2019-04-28T18:39:26.088Z,12.90
2019-04-28T18:44:29.837Z,14.07
2019-04-28T18:46:59.786Z,14.65
2019-04-28T18:49:29.797Z,13.50
2019-04-28T18:51:59.714Z,14.75
2019-04-28T18:54:29.452Z,13.38
2019-04-28T18:56:59.334Z,15.40
2019-04-28T18:59:29.074Z,12.73
2019-04-28T19:02:06.955Z,11.15
2019-04-28T19:04:36.778Z,12.00
2019-04-28T19:07:08.294Z,11.73
2019-04-28T19:09:39.733Z,11.97
2019-04-28T19:12:14.222Z,11.38
2019-04-28T19:15:05.042Z,11.80
2019-04-28T19:17:49.856Z,11.93
2019-04-28T19:20:19.922Z,13.30
2019-04-28T19:22:49.995Z,13.03
2019-04-28T19:25:19.929Z,11.03
2019-04-28T19:27:49.846Z,10.93
2019-04-28T19:30:19.878Z,11.80
2019-04-28T19:32:49.816Z,10.10
2019-04-28T19:35:19.644Z,9.75
2019-04-28T19:37:49.461Z,9.70
2019-04-28T19:40:19.356Z,10.40
2019-04-28T19:42:49.254Z,10.48
2019-04-28T19:45:20.992Z,9.35
2019-04-28T19:50:19.882Z,10.85
2019-04-28T19:52:50.825Z,10.65
2019-04-28T19:55:22.314Z,11.28
2019-04-28T19:57:56.676Z,10.72
2019-04-28T20:00:28.160Z,10.65
2019-04-28T20:02:58.057Z,11.15
2019-04-28T20:05:29.446Z,11.28
2019-04-28T20:07:59.517Z,10.40
2019-04-28T20:10:29.434Z,11.88
2019-04-28T20:12:59.489Z,11.55
2019-04-28T20:15:29.415Z,11.05
2019-04-28T20:18:00.340Z,11.57
2019-04-28T20:20:31.420Z,11.70
2019-04-28T20:23:01.358Z,11.88
2019-04-28T20:25:32.762Z,11.97
2019-04-28T20:28:02.681Z,11.75
2019-04-28T20:30:32.506Z,11.43
2019-04-28T20:33:07.315Z,11.63
2019-04-28T20:35:35.703Z,12.07
2019-04-28T20:38:07.179Z,11.33
2019-04-28T20:40:44.480Z,10.60
2019-04-28T20:43:15.902Z,11.25
2019-04-28T20:45:45.792Z,11.60
2019-04-28T20:48:15.615Z,11.90
2019-04-28T20:50:45.432Z,11.45
2019-04-28T20:53:15.282Z,11.53
2019-04-28T20:55:45.164Z,12.07
2019-04-28T20:58:15.047Z,11.95
2019-04-28T21:00:44.840Z,12.78
2019-04-28T21:03:14.708Z,11.65
2019-04-28T21:05:44.596Z,10.78
2019-04-28T21:08:14.358Z,11.03
2019-04-28T21:10:44.281Z,10.70
2019-04-28T21:13:14.183Z,10.25
2019-04-28T21:15:44.015Z,10.68
2019-04-28T21:18:14.618Z,9.70
2019-04-28T21:23:13.379Z,9.63
2019-04-28T21:25:43.267Z,9.45
2019-04-28T21:28:12.951Z,10.18
2019-04-28T21:30:42.829Z,10.10
2019-04-28T21:33:12.691Z,10.32
2019-04-28T21:35:42.440Z,9.50
2019-04-28T21:38:12.343Z,10.38
2019-04-28T21:40:43.300Z,10.05
2019-04-28T21:43:17.487Z,10.15
2019-04-28T21:45:50.452Z,10.10
2019-04-28T21:48:40.176Z,10.03
2019-04-28T21:51:11.921Z,9.70
2019-04-28T21:53:41.549Z,9.50
2019-04-28T21:56:11.346Z,9.18
2019-04-28T21:58:41.161Z,9.73
2019-04-28T22:01:14.015Z,9.37
2019-04-28T22:03:44.037Z,9.93
2019-04-28T22:06:13.947Z,9.28
2019-04-28T22:08:43.752Z,9.28
2019-04-28T22:11:13.490Z,9.70
2019-04-28T22:13:43.240Z,9.75
2019-04-28T22:16:13.095Z,9.07
2019-04-28T22:18:42.834Z,9.48
2019-04-28T22:21:12.612Z,9.27
2019-04-28T22:23:56.186Z,8.90
2019-04-28T22:26:43.566Z,8.65
2019-04-28T22:29:14.099Z,8.88
2019-04-28T22:31:45.397Z,8.85
2019-04-28T22:34:15.385Z,9.05
2019-04-28T22:36:46.535Z,9.30
2019-04-28T22:39:17.181Z,9.03
2019-04-28T22:44:16.001Z,9.03
2019-04-28T22:46:45.768Z,9.78
2019-04-28T22:49:15.586Z,9.03
2019-04-28T22:51:45.522Z,9.23
2019-04-28T22:54:25.615Z,9.73
2019-04-28T22:56:57.069Z,10.10
2019-04-28T22:59:28.379Z,8.93
2019-04-28T23:02:05.770Z,9.10
2019-04-28T23:04:43.178Z,9.15
2019-04-28T23:07:13.550Z,9.53
2019-04-28T23:09:43.419Z,9.10
2019-04-28T23:12:13.509Z,9.08
2019-04-28T23:14:43.278Z,9.50
2019-04-28T23:17:14.724Z,9.95
2019-04-28T23:19:44.614Z,10.05
2019-04-28T23:22:19.385Z,9.53
2019-04-28T23:24:49.323Z,9.25
2019-04-28T23:27:19.150Z,9.53
2019-04-28T23:29:48.898Z,9.20
2019-04-28T23:32:18.788Z,9.17
2019-04-28T23:34:48.687Z,9.18
2019-04-28T23:37:18.586Z,9.25
2019-04-28T23:39:48.435Z,9.88
2019-04-28T23:42:19.806Z,9.43
2019-04-28T23:44:49.704Z,9.48
2019-04-28T23:47:19.573Z,8.98
2019-04-28T23:49:49.332Z,8.98
2019-04-28T23:52:20.710Z,9.27
2019-04-28T23:54:55.055Z,9.55
2019-04-28T23:57:24.937Z,9.88
2019-04-28T23:59:54.696Z,8.98
